createdAt,value
2018-03-14T00:01:25.011Z,9.79
2018-03-14T00:07:26.501Z,8.57
2018-03-14T00:11:27.350Z,9.51
2018-03-14T00:17:28.474Z,8.21
2018-03-14T00:21:29.778Z,8.78
2018-03-14T00:27:30.635Z,9.1
2018-03-14T00:33:31.593Z,9.16
2018-03-14T00:37:32.158Z,8.14
2018-03-14T00:43:33.009Z,8.99
2018-03-14T00:47:33.770Z,8.85
2018-03-14T00:53:37.622Z,9.25
2018-03-14T00:59:41.070Z,8.43
2018-03-14T01:03:44.862Z,8.3
2018-03-14T01:09:48.643Z,8.08
2018-03-14T01:13:52.187Z,7.31
2018-03-14T01:19:56.108Z,9.55
2018-03-14T01:23:59.942Z,8.41
2018-03-14T01:30:00.651Z,8.37
2018-03-14T01:36:04.297Z,8.05
2018-03-14T01:40:08.228Z,7.3
2018-03-14T01:46:12.054Z,7.24
2018-03-14T01:50:15.945Z,6.6
2018-03-14T01:56:19.674Z,7.72
2018-03-14T02:00:23.796Z,7.34
2018-03-14T02:02:27.569Z,7.19
2018-03-14T02:06:31.561Z,7.46
2018-03-14T02:12:35.370Z,7.3
2018-03-14T02:16:39.185Z,6.97
2018-03-14T02:22:42.956Z,6.63
2018-03-14T02:26:46.718Z,7.48
2018-03-14T02:32:50.630Z,6.74
2018-03-14T02:36:54.376Z,6.41
2018-03-14T02:38:58.263Z,7.17
2018-03-14T02:43:00.099Z,6.98
2018-03-14T02:49:03.659Z,6.98
2018-03-14T02:53:07.605Z,6.93
2018-03-14T02:59:11.457Z,7.11
2018-03-14T03:03:15.376Z,6.9
2018-03-14T03:09:18.824Z,7.3
2018-03-14T03:13:22.519Z,6.84
2018-03-14T03:15:26.195Z,7.32
2018-03-14T03:19:30.516Z,7.53
2018-03-14T03:25:33.959Z,7.35
2018-03-14T03:29:34.818Z,7.21
2018-03-14T03:35:38.681Z,7.02
2018-03-14T03:39:39.578Z,7.15
2018-03-14T03:45:43.348Z,6.74
2018-03-14T03:51:47.071Z,7.86
2018-03-14T03:55:50.900Z,7.53
2018-03-14T04:01:54.786Z,7.44
2018-03-14T04:05:58.154Z,7.46
2018-03-14T04:12:01.892Z,7.86
2018-03-14T04:16:05.797Z,7.36
2018-03-14T04:22:09.528Z,7.18
2018-03-14T04:28:13.357Z,6.39
2018-03-14T04:32:16.873Z,6.77
2018-03-14T04:38:20.728Z,7.07
2018-03-14T04:42:24.502Z,7.12
2018-03-14T04:48:28.368Z,8.7
2018-03-14T04:52:32.009Z,8.46
2018-03-14T04:54:35.705Z,8.25
2018-03-14T04:58:39.233Z,8.1
2018-03-14T05:04:42.963Z,13.04
2018-03-14T05:08:46.347Z,12.76
2018-03-14T05:14:50.074Z,9.59
2018-03-14T05:18:53.806Z,9.34
2018-03-14T05:24:54.631Z,11.06
2018-03-14T05:28:55.298Z,11.61
2018-03-14T05:30:56.241Z,10.17
2018-03-14T05:34:56.889Z,9.82
2018-03-14T05:40:57.704Z,12.76
2018-03-14T05:44:58.478Z,11.47
2018-03-14T05:50:59.277Z,14.1
2018-03-14T05:55:00.042Z,12.7
2018-03-14T05:57:00.714Z,11.09
2018-03-14T06:01:01.640Z,12.03
2018-03-14T06:07:02.351Z,11.23
2018-03-14T06:11:03.236Z,10.66
2018-03-14T06:17:03.946Z,12
2018-03-14T06:21:04.636Z,10.6
2018-03-14T06:23:05.697Z,9.79
2018-03-14T06:27:06.953Z,9.28
2018-03-14T06:33:07.664Z,8.96
2018-03-14T06:37:08.590Z,9.03
2018-03-14T06:43:09.308Z,10.03
2018-03-14T06:47:10.108Z,10.23
2018-03-14T06:49:10.920Z,9.36
2018-03-14T06:53:11.828Z,9.16
2018-03-14T06:59:12.504Z,10.04
2018-03-14T07:03:13.283Z,9.8
2018-03-14T07:09:14.299Z,10.82
2018-03-14T07:13:15.052Z,11.46
2018-03-14T07:15:16.367Z,14.67
2018-03-14T07:19:17.310Z,14.88
2018-03-14T07:25:18.185Z,16.44
2018-03-14T07:29:18.984Z,14.81
2018-03-14T07:35:19.787Z,15.21
2018-03-14T07:39:20.852Z,13.64
2018-03-14T07:41:21.587Z,12.44
2018-03-14T07:45:22.699Z,12.33
2018-03-14T07:51:23.526Z,20.8
2018-03-14T07:55:24.346Z,20.99
2018-03-14T08:01:25.182Z,14.79
2018-03-14T08:05:26.037Z,14.42
2018-03-14T08:07:26.777Z,12.87
2018-03-14T08:11:27.447Z,12.62
2018-03-14T08:17:28.251Z,13.01
2018-03-14T08:21:29.000Z,12.77
2018-03-14T08:27:29.782Z,11.26
2018-03-14T08:31:30.706Z,10.6
2018-03-14T08:33:31.304Z,10.74
2018-03-14T08:37:32.226Z,10.42
2018-03-14T08:43:33.028Z,9.46
2018-03-14T08:47:33.796Z,10.17
2018-03-14T08:53:34.631Z,11.66
2018-03-14T08:57:35.459Z,10.75
2018-03-14T08:59:36.146Z,9.92
2018-03-14T09:03:37.108Z,10.54
2018-03-14T09:09:37.888Z,9.3
2018-03-14T09:13:38.645Z,9.02
2018-03-14T09:19:39.527Z,8.17
2018-03-14T09:23:40.402Z,7.69
2018-03-14T09:25:41.048Z,8.92
2018-03-14T09:29:42.130Z,8.35
2018-03-14T09:35:42.810Z,9.56
2018-03-14T09:39:43.690Z,7.86
2018-03-14T09:45:44.510Z,8
2018-03-14T09:49:45.202Z,7.55
2018-03-14T09:51:46.022Z,7.99
2018-03-14T09:55:46.839Z,7.21
2018-03-14T10:01:47.729Z,7.08
2018-03-14T10:05:48.447Z,6.46
2018-03-14T10:11:49.399Z,6.53
2018-03-14T10:15:50.146Z,6.16
2018-03-14T10:17:50.888Z,7.12
2018-03-14T10:21:52.690Z,6.74
2018-03-14T10:27:53.395Z,6.85
2018-03-14T10:31:54.275Z,6.57
2018-03-14T10:37:54.959Z,6.31
2018-03-14T10:41:55.777Z,6.06
2018-03-14T10:43:56.462Z,6.08
2018-03-14T10:47:57.276Z,5.42
2018-03-14T10:53:57.938Z,5.81
2018-03-14T10:57:58.656Z,5.17
2018-03-14T11:03:59.709Z,5.61
2018-03-14T11:08:00.357Z,5.48
2018-03-14T11:10:01.109Z,5.5
2018-03-14T11:14:02.059Z,4.77
2018-03-14T11:20:03.018Z,4.65
2018-03-14T11:24:03.779Z,4.38
2018-03-14T11:30:04.521Z,4.89
2018-03-14T11:34:05.277Z,4.71
2018-03-14T11:36:05.966Z,5.07
2018-03-14T11:40:06.761Z,4.35
2018-03-14T11:46:07.577Z,4.69
2018-03-14T11:50:08.373Z,4.84
2018-03-14T11:56:09.180Z,4.22
2018-03-14T12:00:10.218Z,4.34
2018-03-14T12:02:10.862Z,4.44
2018-03-14T12:06:11.670Z,3.87
2018-03-14T12:12:12.531Z,3.72
2018-03-14T12:16:13.355Z,3.45
2018-03-14T12:22:14.039Z,3.81
2018-03-14T12:26:14.818Z,4.14
2018-03-14T12:28:15.494Z,3.9
2018-03-14T12:32:16.407Z,3.58
2018-03-14T12:38:17.212Z,3.69
2018-03-14T12:42:18.016Z,3.54
2018-03-14T12:48:18.775Z,3.35
2018-03-14T12:52:19.614Z,3.23
2018-03-14T12:54:20.361Z,3.99
2018-03-14T12:58:21.281Z,3.48
2018-03-14T13:04:22.061Z,2.86
2018-03-14T13:08:22.785Z,2.57
2018-03-14T13:14:23.578Z,3.31
2018-03-14T13:18:24.362Z,2.85
2018-03-14T13:20:25.252Z,2.84
2018-03-14T13:24:26.026Z,2.71
2018-03-14T13:30:27.253Z,2.72
2018-03-14T13:34:28.042Z,2.19
2018-03-14T13:40:28.860Z,3.34
2018-03-14T13:44:29.595Z,3.47
2018-03-14T13:46:30.343Z,2.87
2018-03-14T13:50:31.099Z,2.72
2018-03-14T13:56:32.069Z,2.73
2018-03-14T14:00:33.223Z,3.12
2018-03-14T14:06:34.071Z,2.75
2018-03-14T14:10:34.885Z,2.84
2018-03-14T14:12:41.190Z,2.48
2018-03-14T14:16:41.948Z,2.57
2018-03-14T14:22:42.715Z,2.61
2018-03-14T14:26:43.468Z,2.66
2018-03-14T14:32:44.318Z,2.46
2018-03-14T14:36:45.165Z,2.65
2018-03-14T14:38:46.178Z,2.66
2018-03-14T14:42:47.034Z,2.43
2018-03-14T14:48:47.990Z,2.59
2018-03-14T14:52:48.695Z,2.51
2018-03-14T14:58:49.568Z,2.42
2018-03-14T15:02:50.473Z,2.56
2018-03-14T15:04:51.268Z,2.86
2018-03-14T15:08:52.323Z,2.5
2018-03-14T15:14:53.242Z,2.24
2018-03-14T15:18:53.990Z,2.03
2018-03-14T15:24:55.111Z,2.94
2018-03-14T15:28:55.947Z,2.41
2018-03-14T15:30:56.592Z,2.44
2018-03-14T15:34:57.455Z,2.34
2018-03-14T15:40:58.265Z,2.35
2018-03-14T15:44:58.948Z,2.82
2018-03-14T15:50:59.925Z,2.83
2018-03-14T15:55:00.944Z,2.55
2018-03-14T15:57:01.674Z,2.65
2018-03-14T16:01:02.429Z,2.24
2018-03-14T16:07:03.393Z,2.46
2018-03-14T16:11:04.195Z,2.72
2018-03-14T16:17:05.012Z,2.37
2018-03-14T16:21:05.721Z,2.59
2018-03-14T16:23:06.416Z,2.89
2018-03-14T16:27:07.192Z,2.71
2018-03-14T16:33:07.979Z,3.05
2018-03-14T16:37:08.774Z,2.62
2018-03-14T16:43:09.529Z,2.88
2018-03-14T16:47:10.425Z,2.25
2018-03-14T16:49:11.226Z,3.25
2018-03-14T16:53:11.947Z,2.64
2018-03-14T16:59:12.678Z,3.16
2018-03-14T17:03:13.467Z,2.77
2018-03-14T17:09:14.241Z,3.32
2018-03-14T17:13:15.198Z,2.98
2018-03-14T17:15:16.337Z,2.54
2018-03-14T17:19:17.099Z,2.65
2018-03-14T17:25:18.671Z,3.45
2018-03-14T17:29:19.640Z,3.13
2018-03-14T17:35:20.453Z,3.64
2018-03-14T17:39:21.352Z,3.64
2018-03-14T17:41:22.113Z,3.18
2018-03-14T17:45:23.278Z,3.13
2018-03-14T17:51:24.073Z,3.44
2018-03-14T17:55:24.803Z,3.41
2018-03-14T18:01:25.568Z,5.57
2018-03-14T18:05:26.357Z,5.19
2018-03-14T18:07:27.055Z,5.75
2018-03-14T18:11:27.775Z,5.71
2018-03-14T18:17:28.528Z,6.94
2018-03-14T18:21:29.247Z,7.95
2018-03-14T18:27:30.082Z,6.16
2018-03-14T18:31:30.854Z,5.38
2018-03-14T18:33:31.557Z,6.51
2018-03-14T18:37:32.239Z,6.58
2018-03-14T18:43:33.009Z,9.1
2018-03-14T18:47:33.803Z,8.91
2018-03-14T18:53:34.746Z,6.34
2018-03-14T18:57:35.578Z,6.58
2018-03-14T18:59:36.408Z,9.99
2018-03-14T19:03:37.224Z,7.98
2018-03-14T19:09:38.092Z,14.1
2018-03-14T19:13:38.843Z,12.61
2018-03-14T19:19:39.625Z,11.79
2018-03-14T19:23:40.297Z,11.46
2018-03-14T19:25:41.082Z,11.54
2018-03-14T19:29:41.791Z,11.36
2018-03-14T19:35:42.707Z,14.6
2018-03-14T19:39:43.466Z,13.52
2018-03-14T19:45:44.420Z,11.35
2018-03-14T19:49:45.359Z,9.7
2018-03-14T19:51:46.132Z,10.69
2018-03-14T19:55:46.906Z,9.94
2018-03-14T20:01:47.782Z,12.04
2018-03-14T20:05:48.541Z,11.43
2018-03-14T20:11:49.280Z,12.28
2018-03-14T20:15:50.071Z,12.02
2018-03-14T20:17:50.902Z,13.06
2018-03-14T20:21:51.642Z,12.79
2018-03-14T20:27:52.440Z,12.94
2018-03-14T20:31:53.200Z,12.15
2018-03-14T20:37:53.995Z,9.4
2018-03-14T20:41:54.767Z,8.42
2018-03-14T20:43:55.546Z,7.65
2018-03-14T20:47:56.290Z,6.6
2018-03-14T20:53:57.211Z,8.38
2018-03-14T20:57:58.074Z,8.06
2018-03-14T21:03:58.950Z,8.33
2018-03-14T21:07:59.683Z,8.45
2018-03-14T21:10:00.509Z,9.04
2018-03-14T21:14:01.351Z,8.82
2018-03-14T21:20:02.175Z,8.65
2018-03-14T21:24:02.988Z,8.99
2018-03-14T21:30:03.750Z,9.66
2018-03-14T21:34:04.434Z,9.14
2018-03-14T21:36:05.185Z,10.31
2018-03-14T21:40:05.884Z,9.97
2018-03-14T21:46:06.662Z,10.9
2018-03-14T21:50:07.392Z,10
2018-03-14T21:56:08.314Z,9.58
2018-03-14T22:00:09.226Z,9.07
2018-03-14T22:02:09.960Z,9.7
2018-03-14T22:06:10.726Z,9.38
2018-03-14T22:12:11.378Z,9.33
2018-03-14T22:16:12.080Z,9.5
2018-03-14T22:22:12.862Z,8.92
2018-03-14T22:26:13.598Z,8.69
2018-03-14T22:28:14.347Z,8.36
2018-03-14T22:32:15.139Z,8.11
2018-03-14T22:38:15.891Z,8.29
2018-03-14T22:42:16.584Z,7.83
2018-03-14T22:48:17.335Z,7.98
2018-03-14T22:52:18.118Z,8.1
2018-03-14T22:54:18.760Z,7.42
2018-03-14T22:58:19.688Z,7
2018-03-14T23:04:20.574Z,7.89
2018-03-14T23:08:21.393Z,7.42
2018-03-14T23:14:22.231Z,8.07
2018-03-14T23:18:23.011Z,7.48
2018-03-14T23:20:23.782Z,7.56
2018-03-14T23:24:24.587Z,6.75
2018-03-14T23:30:26.038Z,7.64
2018-03-14T23:34:26.956Z,7.33
2018-03-14T23:40:27.660Z,7.1
2018-03-14T23:44:28.511Z,6.82
2018-03-14T23:46:29.267Z,7.21
2018-03-14T23:50:30.355Z,6.8
2018-03-14T23:56:31.152Z,7.32
